Aérodrome :
LOGIN :

S'inscrire | Disclaimer

   EN    FR    IT 

 










Légende :    VFR   VFR Marginal   IFR   IFR Intensif   IFR Très Intensif
Visi : 
Plafond : 
>= 8 km
>= 3000ft
5 à 8 km
1000 à 3000 ft
1500m à 5 km
500 à 1000 ft
800 à 1500m
200 à 500 ft
< 800m
< 200 ft
Symboles :   Orages  Brouillard  Fortes neiges  Fortes précipitations  Vent > 20 kt
SIGMETs :   Divers  Orages  Givrage  Turbulence  Onde Orograph.  Cendres Volcan.







- Altitude de l'aérodrome : 1906 ft
- Code IATA : INN


LOWI - Innsbruck

DERNIER METAR :
  • 191250Z VRB03KT 9999 FEW070 30/13 Q1019 NOSIG

METARs EXPIRÉS :
  • 191220Z VRB04KT 9999 FEW070 29/13 Q1020 NOSIG
  • 191150Z VRB04KT 9999 FEW070 29/14 Q1020 NOSIG
  • 191120Z VRB04KT 9999 FEW070 28/13 Q1020 NOSIG
  • 191050Z 24003KT 180V350 9999 FEW060 27/15 Q1021 NOSIG
  • 191020Z VRB03KT 9999 FEW060 26/14 Q1021 NOSIG

TAF TAF LOWI
Valide du 19 à 12h jusqu'au 20 à 12h UTC


191115Z 1912/2012 09006KT 9999 FEW060 TX28/1914Z TN17/2004Z
TEMPO 1913/1919 07015KT FEW060CB BKN100
PROB40
TEMPO 1915/1919 VRB15G25KT TSRA
BECMG 1920/1922 27005KT CAVOK
Pas de NOTAMs connus pour ce terrain.



MET'MAP, la Météo Aéronautique d'un coup d'oeil ! - Copyright ORBIFLY Décembre 2007 - Disclaimer

ORBIFLY MET'MAP TEAM :

Programmation & Développement : Alexandra Zaïnal
Conception & Développement : Baudouin d'Aumeries
Co-Programmation & Développement : Marc-Olivier Méhu
Soutien technique & logistique : Manuel Goepfert

Contact : metmap@orbifly.com




SOURCES & CREDITS :

   NOAA